Time;durP1;ratioP1;P1;durP2;ratioP2;P2;SDS_P1;SDS_P2;PMS_P1;PMS_P2;Temp;Humidity;BMP_temperature;BMP_pressure;BME280_temperature;BME280_humidity;BME280_pressure;Samples;Min_cycle;Max_cycle;Signal;HPM_P1;HPM_P2
2022/01/10 00:02:09;;;;;;;4.25;1.42;;;;;;;7.34;73.78;99796.56;6186599;23;20001;-76
2022/01/10 00:04:35;;;;;;;2.55;1.58;;;;;;;7.38;74.04;99790.63;6185252;23;20007;-76
2022/01/10 00:07:01;;;;;;;0.73;0.70;;;;;;;7.42;74.01;99798.00;6186427;23;20008;-77
2022/01/10 00:09:29;;;;;;;0.63;0.45;;;;;;;7.53;74.30;99817.13;6186172;23;20084;-77
2022/01/10 00:11:54;;;;;;;0.93;0.70;;;;;;;7.53;74.05;99820.63;6212993;23;20005;-77
2022/01/10 00:14:20;;;;;;;1.05;0.73;;;;;;;7.53;73.90;99809.75;6186323;23;20091;-76
2022/01/10 00:16:47;;;;;;;3.38;0.52;;;;;;;7.58;74.11;99803.53;6210400;23;20016;-76
2022/01/10 00:19:16;;;;;;;1.50;1.10;;;;;;;7.58;73.47;99811.69;6185580;23;20035;-76
2022/01/10 00:21:41;;;;;;;3.92;1.95;;;;;;;7.54;73.83;99816.84;6162674;23;20004;-76
2022/01/10 00:24:09;;;;;;;3.13;1.95;;;;;;;7.53;73.39;99836.16;6210468;23;20040;-76
2022/01/10 00:26:35;;;;;;;8.73;2.42;;;;;;;7.57;73.15;99837.28;6186765;23;20004;-76
2022/01/10 00:29:03;;;;;;;5.55;2.10;;;;;;;7.54;72.95;99838.63;6186318;23;20015;-76
2022/01/10 00:31:28;;;;;;;11.73;2.83;;;;;;;7.47;72.66;99833.38;6187761;23;20301;-77
2022/01/10 00:34:10;;;;;;;7.43;2.63;;;;;;;7.46;73.10;99852.69;6186648;23;20031;-77
2022/01/10 00:36:36;;;;;;;9.13;2.28;;;;;;;7.49;73.19;99842.13;6164178;23;20005;-75
2022/01/10 00:39:02;;;;;;;7.40;2.45;;;;;;;7.44;73.07;99855.66;6165985;23;20017;-78
2022/01/10 00:41:28;;;;;;;16.40;2.95;;;;;;;7.41;72.81;99856.19;6187036;23;20172;-77
2022/01/10 00:43:54;;;;;;;7.30;2.22;;;;;;;7.41;72.62;99855.38;6214156;23;20527;-76
2022/01/10 00:46:19;;;;;;;7.57;2.50;;;;;;;7.38;73.13;99862.16;6187241;23;20083;-77
2022/01/10 00:48:48;;;;;;;3.95;1.98;;;;;;;7.35;72.94;99857.22;6188279;23;20323;-77
2022/01/10 00:51:13;;;;;;;5.28;1.80;;;;;;;7.37;73.47;99882.25;6184176;23;20039;-78
2022/01/10 00:53:43;;;;;;;9.35;2.95;;;;;;;7.33;73.21;99875.72;6161826;23;20005;-76
2022/01/10 00:56:09;;;;;;;16.08;3.55;;;;;;;7.38;73.43;99889.34;6227070;23;20192;-75
2022/01/10 00:58:36;;;;;;;11.07;2.65;;;;;;;7.39;73.27;99893.72;6233136;23;20053;-75
2022/01/10 01:01:03;;;;;;;7.53;3.10;;;;;;;7.36;73.37;99880.63;6233078;23;20005;-76
2022/01/10 01:03:32;;;;;;;4.60;2.05;;;;;;;7.35;73.55;99879.00;6201525;23;20016;-76
2022/01/10 01:06:01;;;;;;;9.05;2.17;;;;;;;7.38;73.33;99883.09;6220189;23;20015;-77
2022/01/10 01:08:28;;;;;;;6.47;1.40;;;;;;;7.36;73.71;99885.25;6162571;23;20019;-78
2022/01/10 01:11:30;;;;;;;6.15;1.65;;;;;;;7.42;73.48;99890.47;6214881;23;20000;-77
2022/01/10 01:13:55;;;;;;;6.13;1.58;;;;;;;7.41;73.55;99882.59;6212111;23;20005;-77
2022/01/10 01:16:43;;;;;;;4.68;2.72;;;;;;;7.41;73.14;99888.84;6213067;23;20020;-78
2022/01/10 01:19:52;;;;;;;7.03;2.53;;;;;;;7.47;73.55;99895.94;6187155;23;20004;-78
2022/01/10 01:24:39;;;;;;;4.47;1.48;;;;;;;7.48;72.92;99905.75;6170337;23;20336;-77
2022/01/10 01:27:04;;;;;;;7.07;1.30;;;;;;;7.45;73.41;99895.41;6160727;23;20009;-77
2022/01/10 01:29:30;;;;;;;1.55;1.05;;;;;;;7.47;73.12;99904.13;6188039;23;20012;-76
2022/01/10 01:31:57;;;;;;;0.52;0.52;;;;;;;7.47;73.52;99906.84;6186634;23;20008;-77
2022/01/10 01:34:24;;;;;;;3.33;0.75;;;;;;;7.51;73.53;99910.69;6185547;23;20379;-76
2022/01/10 01:36:57;;;;;;;0.60;0.50;;;;;;;7.50;73.67;99909.06;6213063;23;20016;-76
2022/01/10 01:39:30;;;;;;;0.50;0.50;;;;;;;7.59;73.36;99922.19;6162800;23;20454;-76
2022/01/10 01:42:45;;;;;;;0.50;0.40;;;;;;;7.62;73.63;99908.06;6186731;23;20025;-77
2022/01/10 01:44:51;;;;;;;0.30;0.30;;;;;;;7.54;73.25;99897.66;6197290;23;20442;-76
2022/01/10 01:47:19;;;;;;;0.38;0.38;;;;;;;7.62;73.01;99921.66;6187082;23;20114;-78
2022/01/10 01:49:45;;;;;;;0.82;0.70;;;;;;;7.67;73.89;99935.31;6213522;23;20424;-77
2022/01/10 01:52:13;;;;;;;0.52;0.52;;;;;;;7.63;73.23;99929.56;6159115;23;20012;-79
2022/01/10 01:54:41;;;;;;;7.40;1.80;;;;;;;7.63;73.15;99936.91;6162691;23;20067;-77
2022/01/10 01:57:09;;;;;;;4.15;2.10;;;;;;;7.68;72.95;99950.56;6186853;23;20339;-78
2022/01/10 01:59:52;;;;;;;;;;;;;;;;;;;;;
2022/01/10 02:02:19;;;;;;;2.00;1.35;;;;;;;7.60;73.15;99949.13;6211763;23;20083;-78
2022/01/10 02:04:47;;;;;;;1.77;1.00;;;;;;;7.55;73.12;99945.53;6161457;23;20430;-77
2022/01/10 02:07:30;;;;;;;1.02;0.68;;;;;;;7.64;73.17;99952.19;6160881;23;20008;-77
2022/01/10 02:09:55;;;;;;;1.25;0.82;;;;;;;7.56;73.48;99953.44;6188169;23;20004;-78
2022/01/10 02:15:48;;;;;;;2.90;0.93;;;;;;;7.63;72.93;99955.97;6212273;23;20027;-78
2022/01/10 02:18:25;;;;;;;;;;;;;;;;;;;;;
2022/01/10 02:20:51;;;;;;;12.88;2.95;;;;;;;7.50;73.35;99963.47;6213911;23;20075;-76
2022/01/10 02:23:24;;;;;;;3.05;1.98;;;;;;;7.40;73.47;99952.47;6210854;23;20046;-76
2022/01/10 02:25:53;;;;;;;6.32;2.35;;;;;;;7.37;73.54;99961.16;6184488;23;20450;-76
2022/01/10 02:28:19;;;;;;;7.35;3.05;;;;;;;7.35;73.31;99971.47;6185453;23;20008;-76
2022/01/10 02:30:45;;;;;;;4.65;2.65;;;;;;;7.29;73.40;99972.50;6188722;23;20004;-78
2022/01/10 02:33:12;;;;;;;5.18;2.83;;;;;;;7.28;73.12;99976.28;6209005;23;20130;-76
2022/01/10 02:35:48;;;;;;;2.08;1.30;;;;;;;7.26;73.10;99978.44;6184243;23;20047;-76
2022/01/10 02:38:13;;;;;;;1.50;1.40;;;;;;;7.27;73.21;99990.97;6182558;23;20001;-76
2022/01/10 02:40:42;;;;;;;1.15;1.15;;;;;;;7.30;73.85;99990.44;6161982;23;20049;-76
2022/01/10 02:43:08;;;;;;;0.70;0.70;;;;;;;7.30;73.29;99980.41;6186555;23;20008;-75
2022/01/10 02:45:34;;;;;;;2.50;0.95;;;;;;;7.40;73.97;99995.19;6210822;23;20004;-76
2022/01/10 02:48:02;;;;;;;0.60;0.60;;;;;;;7.32;73.66;99996.47;6211577;23;20095;-76
2022/01/10 02:50:30;;;;;;;0.82;0.75;;;;;;;7.47;73.69;100017.56;6214272;23;20080;-76
2022/01/10 02:52:56;;;;;;;0.80;0.52;;;;;;;7.44;73.68;100008.00;6186351;23;20036;-75
2022/01/10 02:55:27;;;;;;;0.45;0.30;;;;;;;7.44;74.10;100008.00;6211414;23;20004;-77
2022/01/10 02:57:55;;;;;;;0.52;0.30;;;;;;;7.47;73.88;100018.38;6212897;23;20082;-76
2022/01/10 03:00:24;;;;;;;0.45;0.45;;;;;;;7.42;73.58;100007.47;6160158;23;20004;-75
2022/01/10 03:02:51;;;;;;;1.75;1.13;;;;;;;7.47;73.87;100023.00;6184520;23;20008;-75
2022/01/10 03:05:18;;;;;;;1.67;1.08;;;;;;;7.54;73.37;100039.97;6182704;23;20070;-74
2022/01/10 03:07:51;;;;;;;0.63;0.63;;;;;;;7.53;73.72;100040.22;6209943;23;20305;-75
2022/01/10 03:10:16;;;;;;;1.15;0.75;;;;;;;7.48;73.97;100035.56;6185930;23;20075;-74
2022/01/10 03:12:43;;;;;;;0.30;0.30;;;;;;;7.46;73.61;100022.19;6183530;23;20043;-75
2022/01/10 03:15:12;;;;;;;0.85;0.75;;;;;;;7.47;73.96;100025.72;6184094;23;20001;-75
2022/01/10 03:17:38;;;;;;;1.60;0.70;;;;;;;7.48;73.64;100030.91;6211940;23;20008;-75
2022/01/10 03:20:08;;;;;;;0.85;0.52;;;;;;;7.47;73.65;100037.44;6212941;23;20005;-75
2022/01/10 03:22:34;;;;;;;4.10;0.40;;;;;;;7.44;73.45;100048.81;6189075;23;20377;-76
2022/01/10 03:25:13;;;;;;;;;;;;;;;;;;;;;
2022/01/10 03:27:39;;;;;;;0.55;0.55;;;;;;;7.42;73.57;100042.81;6214735;23;20496;-76
2022/01/10 03:30:05;;;;;;;0.52;0.30;;;;;;;7.39;74.28;100043.34;6163573;23;20032;-76
2022/01/10 03:32:40;;;;;;;0.63;0.30;;;;;;;7.33;73.98;100033.47;6214359;23;20009;-77
2022/01/10 03:35:08;;;;;;;0.47;0.47;;;;;;;7.41;74.07;100040.38;6167161;23;20004;-78
2022/01/10 03:37:36;;;;;;;0.32;0.32;;;;;;;7.45;74.28;100053.19;6188524;23;20001;-78
2022/01/10 03:40:01;;;;;;;1.98;1.08;;;;;;;7.49;73.81;100059.78;6190536;23;20058;-78
2022/01/10 03:42:37;;;;;;;2.75;1.33;;;;;;;7.47;73.49;100059.19;6163715;23;20092;-77
2022/01/10 03:45:07;;;;;;;4.38;1.88;;;;;;;7.37;74.05;100059.06;6189096;23;20012;-77
2022/01/10 03:47:33;;;;;;;6.93;2.40;;;;;;;7.34;73.58;100056.88;6186203;23;20008;-78
2022/01/10 03:50:07;;;;;;;3.25;1.83;;;;;;;7.37;74.11;100067.22;6185890;23;20450;-77
2022/01/10 03:52:43;;;;;;;5.83;3.13;;;;;;;7.32;73.70;100059.03;6161235;23;20015;-77
2022/01/10 03:55:10;;;;;;;4.70;3.28;;;;;;;7.29;73.31;100054.09;6184591;23;19996;-77
2022/01/10 03:57:38;;;;;;;5.57;3.33;;;;;;;7.19;73.90;100034.94;6186376;23;20009;-76
2022/01/10 04:00:07;;;;;;;3.05;2.72;;;;;;;7.15;73.80;100049.03;6183625;23;20062;-77
2022/01/10 04:02:34;;;;;;;4.20;2.33;;;;;;;7.22;73.62;100067.06;6185858;23;20000;-76
2022/01/10 04:05:13;;;;;;;;;;;;;;;;;;;;;
2022/01/10 04:07:51;;;;;;;1.67;1.58;;;;;;;7.27;74.63;100084.28;6213473;23;20076;-77
2022/01/10 04:10:25;;;;;;;1.55;1.30;;;;;;;7.25;73.76;100080.16;6212875;23;19996;-77
2022/01/10 04:12:50;;;;;;;1.63;1.00;;;;;;;7.28;74.04;100079.66;6185454;23;20419;-77
2022/01/10 04:15:19;;;;;;;0.75;0.75;;;;;;;7.30;73.75;100091.91;6183759;23;20092;-77
2022/01/10 04:17:54;;;;;;;;;;;;;;;;;;;;;
2022/01/10 04:20:20;;;;;;;0.88;0.77;;;;;;;7.41;74.61;100108.38;6234717;23;20012;-77
2022/01/10 04:22:46;;;;;;;0.50;0.30;;;;;;;7.40;74.30;100099.38;6182201;23;20001;-78
2022/01/10 04:28:00;;;;;;;0.68;0.43;;;;;;;7.47;74.05;100110.06;6216967;23;20009;-76
2022/01/10 04:30:38;;;;;;;;;;;;;;;;;;;;;
2022/01/10 04:33:16;;;;;;;;;;;;;;;;;;;;;
2022/01/10 04:35:42;;;;;;;1.77;0.82;;;;;;;7.49;74.37;100106.03;6166820;23;20080;-77
2022/01/10 04:38:16;;;;;;;0.88;0.60;;;;;;;7.51;74.21;100125.63;6187783;23;20427;-77
2022/01/10 04:40:44;;;;;;;1.58;0.82;;;;;;;7.47;74.48;100121.78;6163357;23;20012;-76
2022/01/10 04:43:22;;;;;;;;;;;;;;;;;;;;;
2022/01/10 04:45:48;;;;;;;3.72;1.52;;;;;;;7.35;74.57;100112.91;6191855;23;20092;-78
2022/01/10 04:48:27;;;;;;;1.35;1.25;;;;;;;7.40;74.07;100129.28;6189755;23;20388;-75
2022/01/10 04:53:27;;;;;;;3.45;1.48;;;;;;;7.39;74.20;100144.00;6233338;23;20301;-76
2022/01/10 04:55:54;;;;;;;3.05;1.50;;;;;;;7.46;74.32;100158.25;6187674;23;20043;-76
2022/01/10 04:58:22;;;;;;;2.95;1.10;;;;;;;7.43;74.56;100157.91;6213681;23;20070;-76
2022/01/10 05:00:50;;;;;;;0.90;0.75;;;;;;;7.42;74.61;100156.28;6188340;23;20055;-76
2022/01/10 05:03:17;;;;;;;1.65;0.95;;;;;;;7.40;74.62;100159.22;6213784;23;20428;-77
2022/01/10 05:05:48;;;;;;;2.42;0.85;;;;;;;7.39;74.42;100163.03;6187767;23;20016;-77
2022/01/10 05:08:14;;;;;;;0.57;0.55;;;;;;;7.42;74.14;100173.41;6183587;23;20063;-76
2022/01/10 05:10:48;;;;;;;0.40;0.40;;;;;;;7.46;74.28;100174.56;6214886;23;20300;-76
2022/01/10 05:13:23;;;;;;;1.10;0.70;;;;;;;7.44;74.76;100160.38;6184622;23;20015;-75
2022/01/10 05:16:13;;;;;;;1.20;1.07;;;;;;;7.47;74.76;100176.19;6182389;23;20032;-74
2022/01/10 05:18:39;;;;;;;4.63;1.50;;;;;;;7.55;74.55;100183.13;6169770;23;20008;-75
2022/01/10 05:21:08;;;;;;;4.40;2.20;;;;;;;7.46;74.10;100174.56;6183833;23;20067;-76
2022/01/10 05:23:33;;;;;;;11.68;3.60;;;;;;;7.44;74.30;100175.88;6187360;23;20466;-76
2022/01/10 05:25:59;;;;;;;4.70;3.42;;;;;;;7.40;74.19;100169.28;6212911;23;20004;-76
2022/01/10 05:28:29;;;;;;;10.85;2.95;;;;;;;7.46;73.95;100196.31;6162276;23;20020;-75
2022/01/10 05:31:00;;;;;;;8.25;3.20;;;;;;;7.34;74.22;100182.00;6188902;23;20427;-77
2022/01/10 05:33:27;;;;;;;5.80;3.30;;;;;;;7.32;73.63;100193.13;6211031;23;20008;-78
2022/01/10 05:35:53;;;;;;;10.52;2.83;;;;;;;7.25;73.63;100188.94;6213776;23;20032;-78
2022/01/10 05:38:31;;;;;;;;;;;;;;;;;;;;;
2022/01/10 05:40:57;;;;;;;1.92;1.83;;;;;;;7.24;74.56;100199.00;6211685;23;20067;-77
2022/01/10 05:43:25;;;;;;;1.98;1.42;;;;;;;7.24;74.67;100198.16;6187610;23;20439;-76
2022/01/10 05:46:06;;;;;;;;;;;;;;;;;;;;;
2022/01/10 05:48:43;;;;;;;1.05;0.90;;;;;;;7.25;74.63;100202.53;6213249;23;20338;-77
2022/01/10 05:51:12;;;;;;;0.93;0.90;;;;;;;7.27;74.50;100208.53;6211920;23;20332;-73
2022/01/10 05:53:38;;;;;;;3.75;0.82;;;;;;;7.23;74.55;100212.81;6213404;23;20032;-75
2022/01/10 05:56:12;;;;;;;0.35;0.35;;;;;;;7.28;74.56;100212.91;6223281;23;19988;-73
2022/01/10 05:58:43;;;;;;;0.50;0.50;;;;;;;7.33;75.14;100221.16;6208854;23;20008;-74
2022/01/10 06:01:09;;;;;;;0.70;0.55;;;;;;;7.40;74.43;100234.59;6231988;23;20001;-74
2022/01/10 06:03:34;;;;;;;0.95;0.50;;;;;;;7.42;74.96;100244.16;6228914;23;20000;-76
2022/01/10 06:06:00;;;;;;;0.73;0.52;;;;;;;7.37;75.05;100235.91;6203484;23;20023;-76
2022/01/10 06:08:25;;;;;;;1.17;0.52;;;;;;;7.39;74.60;100241.94;6229712;23;20012;-78
2022/01/10 06:10:50;;;;;;;1.30;0.80;;;;;;;7.37;74.97;100235.91;6171611;23;20373;-76
2022/01/10 06:13:18;;;;;;;1.10;0.85;;;;;;;7.38;74.88;100237.56;6214140;23;20422;-74
2022/01/10 06:15:44;;;;;;;0.63;0.63;;;;;;;7.43;75.20;100250.41;6185305;23;20070;-75
2022/01/10 06:18:11;;;;;;;0.80;0.80;;;;;;;7.45;74.80;100265.41;6215520;23;20019;-74
2022/01/10 06:20:54;;;;;;;1.35;1.25;;;;;;;7.46;74.92;100266.22;6163484;23;20493;-74
2022/01/10 06:23:20;;;;;;;1.83;1.50;;;;;;;7.35;75.01;100259.81;6214584;23;20000;-74
2022/01/10 06:25:48;;;;;;;5.78;2.10;;;;;;;7.29;75.10;100239.06;6184717;23;20009;-74
2022/01/10 06:28:15;;;;;;;3.47;2.08;;;;;;;7.34;74.96;100258.16;6162313;23;20016;-77
2022/01/10 06:30:43;;;;;;;2.65;1.42;;;;;;;7.38;74.91;100270.19;6185433;23;20447;-75
2022/01/10 06:33:14;;;;;;;5.43;1.20;;;;;;;7.39;75.28;100277.28;6186138;23;19997;-75
2022/01/10 06:35:40;;;;;;;2.08;0.60;;;;;;;7.47;74.84;100284.22;6214045;23;20001;-75
2022/01/10 06:38:07;;;;;;;1.45;0.85;;;;;;;7.46;74.41;100288.84;6211400;23;20004;-77
2022/01/10 06:40:33;;;;;;;0.75;0.73;;;;;;;7.39;74.61;100274.56;6163219;23;20017;-75
2022/01/10 06:43:04;;;;;;;0.82;0.82;;;;;;;7.42;74.55;100286.88;6186242;23;20470;-77
2022/01/10 06:45:31;;;;;;;1.08;0.98;;;;;;;7.54;74.80;100308.53;6163605;23;20005;-76
2022/01/10 06:48:07;;;;;;;;;;;;;;;;;;;;;
2022/01/10 06:50:33;;;;;;;0.40;0.40;;;;;;;7.43;74.53;100289.34;6212669;23;20374;-76
2022/01/10 06:53:02;;;;;;;1.98;1.25;;;;;;;7.48;75.14;100308.44;6212080;23;20028;-75
2022/01/10 06:55:45;;;;;;;2.45;1.20;;;;;;;7.45;75.00;100303.50;6162153;23;20088;-75
2022/01/10 06:58:11;;;;;;;1.00;0.98;;;;;;;7.57;74.77;100327.09;6186988;23;20030;-76
2022/01/10 07:00:37;;;;;;;1.92;1.00;;;;;;;7.58;74.88;100324.13;6160508;23;20005;-76
2022/01/10 07:03:03;;;;;;;0.80;0.70;;;;;;;7.50;75.04;100322.66;6184438;23;19997;-75
2022/01/10 07:05:46;;;;;;;1.15;1.05;;;;;;;7.50;75.10;100322.66;6212591;23;20011;-75
2022/01/10 07:08:22;;;;;;;;;;;;;;;;;;;;;
2022/01/10 07:10:48;;;;;;;4.07;1.95;;;;;;;7.46;74.99;100324.22;6188630;23;20079;-75
2022/01/10 07:13:24;;;;;;;;;;;;;;;;;;;;;
2022/01/10 07:15:50;;;;;;;1.38;1.17;;;;;;;7.53;74.46;100359.41;6211332;23;20096;-75
2022/01/10 07:18:16;;;;;;;1.10;1.00;;;;;;;7.46;75.19;100348.69;6213634;23;20062;-75
2022/01/10 07:20:41;;;;;;;0.80;0.80;;;;;;;7.47;75.28;100358.47;6211333;23;20005;-76
2022/01/10 07:23:09;;;;;;;0.60;0.60;;;;;;;7.53;75.10;100370.28;6161274;23;20443;-76
2022/01/10 07:25:42;;;;;;;2.53;0.60;;;;;;;7.50;74.59;100366.19;6161748;23;20040;-75
2022/01/10 07:28:13;;;;;;;1.10;0.98;;;;;;;7.56;75.48;100379.84;6185803;23;20012;-75
2022/01/10 07:30:41;;;;;;;0.63;0.60;;;;;;;7.62;75.03;100389.75;6211134;23;20499;-74
2022/01/10 07:33:09;;;;;;;0.73;0.73;;;;;;;7.55;74.86;100384.47;6182934;23;20036;-75
2022/01/10 07:35:35;;;;;;;0.50;0.43;;;;;;;7.62;75.34;100400.63;6183792;23;20031;-72
2022/01/10 07:38:02;;;;;;;0.80;0.80;;;;;;;7.65;75.07;100400.13;6212020;23;20148;-76
2022/01/10 07:40:28;;;;;;;2.50;1.25;;;;;;;7.66;75.16;100412.69;6210212;23;20012;-75
2022/01/10 07:43:01;;;;;;;1.40;0.80;;;;;;;7.62;75.21;100412.38;6213017;23;20426;-72
2022/01/10 07:45:29;;;;;;;1.92;1.23;;;;;;;7.64;75.07;100420.28;6185766;23;20004;-71
2022/01/10 07:47:55;;;;;;;3.63;1.67;;;;;;;7.61;74.77;100420.78;6211617;23;20015;-71
2022/01/10 07:50:20;;;;;;;1.85;1.75;;;;;;;7.58;74.91;100432.97;6185434;23;20001;-71
2022/01/10 07:52:46;;;;;;;3.92;1.75;;;;;;;7.57;75.18;100441.38;6210681;23;20063;-72
2022/01/10 07:55:12;;;;;;;2.53;1.52;;;;;;;7.52;74.94;100439.41;6213482;23;20312;-72
2022/01/10 07:57:37;;;;;;;3.35;1.55;;;;;;;7.51;75.37;100444.00;6211212;23;20462;-73
2022/01/10 08:00:05;;;;;;;2.47;1.63;;;;;;;7.50;75.08;100452.41;6213764;23;20076;-72
2022/01/10 08:02:30;;;;;;;6.72;1.83;;;;;;;7.47;74.80;100459.16;6182700;23;20092;-71
2022/01/10 08:04:56;;;;;;;6.72;2.58;;;;;;;7.51;74.91;100464.94;6211855;23;20383;-70
2022/01/10 08:07:22;;;;;;;3.83;2.40;;;;;;;7.43;75.13;100452.59;6188042;23;20339;-72
2022/01/10 08:09:47;;;;;;;3.10;1.75;;;;;;;7.45;75.16;100461.31;6185853;23;20104;-72
2022/01/10 08:12:13;;;;;;;1.60;1.33;;;;;;;7.49;75.61;100464.34;6187942;23;20370;-72
2022/01/10 08:14:38;;;;;;;5.88;1.73;;;;;;;7.60;75.18;100473.53;6194718;23;20004;-72
2022/01/10 08:17:06;;;;;;;2.15;1.25;;;;;;;7.57;75.18;100474.84;6230131;23;20083;-72
2022/01/10 08:19:35;;;;;;;1.77;1.48;;;;;;;7.64;74.90;100480.97;6236139;23;19989;-72
2022/01/10 08:22:02;;;;;;;1.20;1.10;;;;;;;7.72;75.38;100484.38;6222093;23;20005;-73
2022/01/10 08:24:30;;;;;;;0.95;0.95;;;;;;;7.68;74.99;100481.28;6191519;23;20075;-73
2022/01/10 08:26:59;;;;;;;0.77;0.70;;;;;;;7.75;74.96;100489.31;6215114;23;20004;-73
2022/01/10 08:29:25;;;;;;;1.25;1.00;;;;;;;7.69;75.08;100483.78;6163681;23;20008;-72
2022/01/10 08:31:51;;;;;;;1.45;0.90;;;;;;;7.79;74.74;100498.66;6214963;23;20084;-74
2022/01/10 08:34:21;;;;;;;1.13;1.02;;;;;;;7.74;75.22;100493.94;6184034;23;20009;-73
2022/01/10 08:36:46;;;;;;;4.30;2.63;;;;;;;7.85;74.51;100514.81;6188441;23;20016;-74
2022/01/10 08:39:12;;;;;;;4.38;2.92;;;;;;;7.73;74.54;100505.91;6211901;23;20396;-72
2022/01/10 08:41:38;;;;;;;3.25;2.05;;;;;;;7.74;74.37;100513.00;6163854;23;20019;-73
2022/01/10 08:44:05;;;;;;;2.92;1.48;;;;;;;7.80;74.94;100525.63;6211738;23;20000;-72
2022/01/10 08:46:38;;;;;;;1.92;1.83;;;;;;;7.88;74.97;100531.75;6211426;23;20058;-71
2022/01/10 08:49:04;;;;;;;1.67;0.98;;;;;;;7.83;74.52;100527.03;6186434;23;20020;-73
2022/01/10 08:51:32;;;;;;;2.03;1.33;;;;;;;7.89;75.16;100536.94;6182927;23;20005;-74
2022/01/10 08:54:06;;;;;;;3.65;1.13;;;;;;;7.89;75.26;100534.22;6186612;23;20336;-76
2022/01/10 08:56:34;;;;;;;1.83;1.20;;;;;;;7.96;74.99;100534.06;6187264;23;20386;-74
2022/01/10 08:59:01;;;;;;;1.88;1.38;;;;;;;7.94;74.60;100523.41;6188655;23;20648;-74
2022/01/10 09:01:52;;;;;;;;;;;;;;;;;;;;;
2022/01/10 09:04:22;;;;;;;4.57;2.72;;;;;;;7.87;74.63;100509.16;6166479;23;20352;-75
2022/01/10 09:06:58;;;;;;;9.88;4.57;;;;;;;8.06;74.79;100536.97;6186383;23;19996;-74
2022/01/10 09:09:24;;;;;;;6.65;4.25;;;;;;;7.90;74.13;100521.41;6188246;23;20005;-74
2022/01/10 09:11:49;;;;;;;5.35;3.17;;;;;;;8.02;74.57;100525.72;6188566;23;20012;-75
2022/01/10 09:14:15;;;;;;;4.10;2.83;;;;;;;8.08;74.14;100544.91;6185868;23;20009;-75
2022/01/10 09:16:42;;;;;;;7.47;2.40;;;;;;;8.11;74.62;100539.75;6187058;23;20024;-74
2022/01/10 09:19:11;;;;;;;2.08;1.85;;;;;;;8.08;74.83;100529.38;6162426;23;20019;-76
2022/01/10 09:21:37;;;;;;;4.80;2.40;;;;;;;8.18;74.84;100545.88;6161891;23;20035;-75
2022/01/10 09:24:03;;;;;;;5.82;1.73;;;;;;;8.19;74.21;100544.81;6183537;23;20001;-74
2022/01/10 09:26:31;;;;;;;3.17;1.77;;;;;;;8.28;74.56;100553.41;6212996;23;20005;-73
2022/01/10 09:28:57;;;;;;;2.08;1.10;;;;;;;8.33;74.25;100558.09;6184084;23;20447;-74
2022/01/10 09:31:23;;;;;;;1.63;1.20;;;;;;;8.30;74.83;100547.69;6184327;23;20016;-74
2022/01/10 09:33:54;;;;;;;3.65;1.30;;;;;;;8.39;74.65;100562.56;6210379;23;20434;-75
2022/01/10 09:36:21;;;;;;;5.40;2.05;;;;;;;8.32;74.41;100549.13;6212383;23;20008;-76
2022/01/10 09:38:47;;;;;;;4.75;1.58;;;;;;;8.33;74.66;100558.91;6186617;23;20139;-76
2022/01/10 09:41:12;;;;;;;5.45;2.45;;;;;;;8.29;74.51;100551.50;6183688;23;20430;-75
2022/01/10 09:43:41;;;;;;;4.07;2.38;;;;;;;8.29;74.41;100562.38;6187601;23;20019;-74
2022/01/10 09:46:08;;;;;;;6.68;3.20;;;;;;;8.27;74.09;100564.53;6187853;23;20008;-74
2022/01/10 09:48:46;;;;;;;;;;;;;;;;;;;;;
2022/01/10 09:51:12;;;;;;;11.35;4.53;;;;;;;8.19;74.53;100563.88;6212562;23;20074;-76
2022/01/10 09:53:40;;;;;;;9.48;3.17;;;;;;;8.27;74.21;100579.00;6210260;23;20043;-76
2022/01/10 09:56:06;;;;;;;3.25;2.83;;;;;;;8.32;74.40;100578.25;6214870;23;20075;-74
2022/01/10 09:58:31;;;;;;;7.32;2.67;;;;;;;8.37;74.05;100581.06;6214655;23;20035;-76
2022/01/10 10:00:58;;;;;;;7.45;3.28;;;;;;;8.41;74.13;100575.94;6212950;23;20024;-74
2022/01/10 10:03:24;;;;;;;3.67;1.88;;;;;;;8.42;74.32;100567.50;6213887;23;20005;-77
2022/01/10 10:05:57;;;;;;;6.65;2.33;;;;;;;8.51;74.53;100584.31;6186024;23;20035;-75
2022/01/10 10:08:24;;;;;;;2.75;1.83;;;;;;;8.51;73.88;100576.97;6212619;23;20311;-76
2022/01/10 10:10:51;;;;;;;8.27;3.08;;;;;;;8.50;74.32;100588.94;6210784;23;20419;-75
2022/01/10 10:13:18;;;;;;;7.63;2.30;;;;;;;8.51;74.04;100597.94;6210328;23;20005;-75
2022/01/10 10:15:45;;;;;;;4.70;1.65;;;;;;;8.51;74.22;100606.09;6212602;23;20044;-75
2022/01/10 10:18:12;;;;;;;2.53;1.63;;;;;;;8.50;74.73;100616.19;6184768;23;20334;-75
2022/01/10 10:20:40;;;;;;;3.08;1.70;;;;;;;8.53;74.48;100623.06;6185637;23;20024;-77
2022/01/10 10:23:06;;;;;;;4.03;2.00;;;;;;;8.51;74.51;100625.19;6161337;23;20092;-76
2022/01/10 10:25:33;;;;;;;4.50;1.67;;;;;;;8.55;74.67;100635.34;6184814;23;20411;-76
2022/01/10 10:28:00;;;;;;;2.35;1.48;;;;;;;8.61;74.56;100635.44;6212623;23;20030;-74
2022/01/10 10:30:28;;;;;;;1.92;1.40;;;;;;;8.63;74.78;100619.66;6211535;23;20023;-77
2022/01/10 10:33:29;;;;;;;4.65;2.08;;;;;;;8.62;74.15;100615.28;6212261;23;20005;-75
2022/01/10 10:36:04;;;;;;;7.68;2.22;;;;;;;8.64;74.30;100621.31;6038820;23;20097;-77
2022/01/10 10:38:29;;;;;;;8.23;2.60;;;;;;;8.65;74.07;100617.50;6189425;23;20005;-75
2022/01/10 10:41:00;;;;;;;4.65;2.10;;;;;;;8.70;74.29;100625.75;6197847;23;20049;-77
2022/01/10 10:43:28;;;;;;;4.30;1.85;;;;;;;8.69;74.53;100630.41;6212465;23;20084;-76
2022/01/10 10:45:54;;;;;;;2.88;1.58;;;;;;;8.77;74.64;100639.25;6186738;23;20012;-75
2022/01/10 10:48:19;;;;;;;3.08;1.40;;;;;;;8.84;74.41;100639.91;6160158;23;20012;-74
2022/01/10 10:50:47;;;;;;;1.80;1.38;;;;;;;8.81;74.32;100635.75;6184480;23;20012;-71
2022/01/10 10:53:14;;;;;;;4.20;1.20;;;;;;;8.94;74.06;100650.16;6186899;23;20335;-73
2022/01/10 10:55:47;;;;;;;1.90;1.48;;;;;;;8.99;73.93;100652.94;6184246;23;20016;-72
2022/01/10 10:58:13;;;;;;;2.72;1.80;;;;;;;8.93;73.70;100653.94;6184871;23;20008;-74
2022/01/10 11:00:41;;;;;;;2.95;2.00;;;;;;;8.90;73.93;100644.34;6210607;23;20001;-73
2022/01/10 11:03:09;;;;;;;4.22;1.50;;;;;;;8.91;74.33;100663.19;6186315;23;20400;-73
2022/01/10 11:05:35;;;;;;;5.82;2.20;;;;;;;8.95;74.21;100668.13;6162144;23;20343;-73
2022/01/10 11:08:01;;;;;;;4.28;2.08;;;;;;;8.90;73.87;100661.53;6213661;23;20008;-76
2022/01/10 11:10:29;;;;;;;1.98;1.80;;;;;;;8.99;73.72;100674.75;6195349;23;20011;-74
2022/01/10 11:13:00;;;;;;;5.40;1.58;;;;;;;8.97;73.96;100671.47;6225647;23;20000;-76
2022/01/10 11:15:26;;;;;;;3.88;1.60;;;;;;;8.97;74.25;100671.47;6226849;23;20117;-75
2022/01/10 11:18:00;;;;;;;1.33;1.23;;;;;;;9.03;73.72;100676.72;6205622;23;20008;-73
2022/01/10 11:20:27;;;;;;;4.57;1.40;;;;;;;9.06;73.77;100680.88;6231571;23;20008;-77
2022/01/10 11:22:58;;;;;;;3.28;1.70;;;;;;;9.07;74.01;100680.63;6220213;23;20000;-75
2022/01/10 11:25:29;;;;;;;1.77;1.23;;;;;;;9.11;73.96;100689.09;6211104;23;20157;-76
2022/01/10 11:27:58;;;;;;;5.97;2.10;;;;;;;9.19;73.59;100696.88;6211746;23;20075;-75
2022/01/10 11:30:39;;;;;;;4.38;1.98;;;;;;;9.26;73.90;100686.63;6211979;23;20066;-74
2022/01/10 11:33:10;;;;;;;1.83;1.27;;;;;;;9.29;73.76;100687.19;6212108;23;20051;-75
2022/01/10 11:35:46;;;;;;;2.50;1.52;;;;;;;9.42;73.48;100695.03;6212906;23;20059;-75
2022/01/10 11:38:15;;;;;;;3.65;1.25;;;;;;;9.50;73.78;100691.84;6186936;23;20008;-74
2022/01/10 11:40:42;;;;;;;3.60;1.13;;;;;;;9.63;73.78;100700.78;6211582;23;20026;-76
2022/01/10 11:43:08;;;;;;;2.58;1.65;;;;;;;9.72;73.91;100699.25;6212444;23;20016;-75
2022/01/10 11:45:42;;;;;;;4.40;1.60;;;;;;;9.77;73.52;100691.13;6186635;23;20005;-76
2022/01/10 11:48:09;;;;;;;1.65;1.33;;;;;;;9.86;73.40;100694.25;6186128;23;20009;-74
2022/01/10 11:50:41;;;;;;;3.40;1.58;;;;;;;9.85;72.98;100701.59;6208890;23;20044;-74
2022/01/10 11:53:08;;;;;;;2.00;1.33;;;;;;;9.82;73.16;100696.63;6212156;23;20047;-73
2022/01/10 11:55:54;;;;;;;9.13;2.25;;;;;;;9.79;72.97;100703.44;6210985;23;20008;-74
2022/01/10 11:58:24;;;;;;;;;;;;;;;9.74;73.22;100702.56;6186783;23;20000;-74
2022/01/10 12:00:52;;;;;;;8.65;2.15;;;;;;;9.63;72.97;100703.50;6212427;23;19915;-74
2022/01/10 12:03:20;;;;;;;4.65;2.03;;;;;;;9.58;72.93;100699.63;6208676;23;20008;-74
2022/01/10 12:05:46;;;;;;;5.18;1.73;;;;;;;9.54;73.25;100703.13;6183596;23;20009;-73
2022/01/10 12:08:12;;;;;;;7.13;2.13;;;;;;;9.54;73.55;100706.66;6160163;23;20005;-74
2022/01/10 12:10:39;;;;;;;3.28;2.05;;;;;;;9.56;73.05;100701.78;6182921;23;20100;-74
2022/01/10 12:13:10;;;;;;;2.72;1.35;;;;;;;9.61;72.94;100710.03;6210492;23;20008;-73
2022/01/10 12:15:37;;;;;;;4.15;1.80;;;;;;;9.66;73.14;100700.25;6185287;23;20024;-74